South Hill, Washington
Current Conditions -  °F | °C
As of 9:58 PM on Saturday 25 Oct 2014 (Local Time) from KTCM Reporting Station
Broken Clouds Broken Clouds  
Wind Chill: 52°   Ceiling: 20000
Heat Index: 52°   Visibility: 10mi
Dew Point: 49°   Wind: 15mph
Humidity: 90%   Direction: 210°SSW
Pressure: 29.68"   Gusts: NA
Location:  47.14°N, 122.26°W
Report Text: KTCM 260458Z AUTO 21013KT 10SM FEW024 SCT033 BKN200 11/10 A2968 RMK AO2 PK WND 19027/00 RAB0359E0409 SLP055 P0000 T01100095 $
Loading
Personal Weather Stations






























Interactive Weather Map
Tropical Storm Tracking
New forecast layout! Learn more

10-Day Weather Forecast

Advertisements
Track Severe Weather on mobile